NCAR-RAP Real-Time Weather Data

Output produced by METARs form (24 April 2018  16:12 UTC)
found at http://weather.rap.ucar.edu/surface/
 
RJAA 241600Z 17008KT 9999 -RA FEW025 BKN050 18/17 Q1007 NOSIG
 
 
RJAH 241600Z 16005KT 3000 -SHRA BR FEW003 SCT005 OVC030 17/17 Q1007
 
RJGG 241600Z 14017KT 8000 SHRA FEW015 BKN030 18/18 Q1004 NOSIG
 
RJNK 241600Z 00000KT 3000 SHRA BR FEW003 SCT005 BKN015 15/15 Q1002
 
RJNT 241200Z 19005KT 140V230 9999 -RA FEW008 BKN050 BKN070 17/15 Q1005
 
 
 
 
 
RJTT 241600Z 19020KT 8000 -SHRA FEW004 SCT007 BKN015 19/18 Q1006 TEMPO 19022G32KT RMK 1ST004 3ST007 6CU015 A2972